Map

Track Data

SID SEASON NUMBER BASIN SUBBASIN NAME ISO_TIME NATURE LAT LON WMO_WIND WMO_PRES WMO_AGENCY TRACK_TYPE DIST2LAND LANDFALL IFLAG USA_AGENCY USA_ATCF_ID USA_LAT USA_LON USA_RECORD USA_STATUS USA_WIND USA_PRES USA_SSHS USA_R34_NE USA_R34_SE USA_R34_SW USA_R34_NW USA_R50_NE USA_R50_SE USA_R50_SW USA_R50_NW USA_R64_NE USA_R64_SE USA_R64_SW USA_R64_NW USA_POCI USA_ROCI USA_RMW USA_EYE TOKYO_LAT TOKYO_LON TOKYO_GRADE TOKYO_WIND TOKYO_PRES TOKYO_R50_DIR TOKYO_R50_LONG TOKYO_R50_SHORT TOKYO_R30_DIR TOKYO_R30_LONG TOKYO_R30_SHORT TOKYO_LAND CMA_LAT CMA_LON CMA_CAT CMA_WIND CMA_PRES HKO_LAT HKO_LON HKO_CAT HKO_WIND HKO_PRES NEWDELHI_LAT NEWDELHI_LON NEWDELHI_GRADE NEWDELHI_WIND NEWDELHI_PRES NEWDELHI_CI NEWDELHI_DP NEWDELHI_POCI REUNION_LAT REUNION_LON REUNION_TYPE REUNION_WIND REUNION_PRES REUNION_TNUM REUNION_CI REUNION_RMW REUNION_R34_NE REUNION_R34_SE REUNION_R34_SW REUNION_R34_NW REUNION_R50_NE REUNION_R50_SE REUNION_R50_SW REUNION_R50_NW REUNION_R64_NE REUNION_R64_SE REUNION_R64_SW REUNION_R64_NW BOM_LAT BOM_LON BOM_TYPE BOM_WIND BOM_PRES BOM_TNUM BOM_CI BOM_RMW BOM_R34_NE BOM_R34_SE BOM_R34_SW BOM_R34_NW BOM_R50_NE BOM_R50_SE BOM_R50_SW BOM_R50_NW BOM_R64_NE BOM_R64_SE BOM_R64_SW BOM_R64_NW BOM_ROCI BOM_POCI BOM_EYE BOM_POS_METHOD BOM_PRES_METHOD NADI_LAT NADI_LON NADI_CAT NADI_WIND NADI_PRES WELLINGTON_LAT WELLINGTON_LON WELLINGTON_WIND WELLINGTON_PRES DS824_LAT DS824_LON DS824_STAGE DS824_WIND DS824_PRES TD9636_LAT TD9636_LON TD9636_STAGE TD9636_WIND TD9636_PRES TD9635_LAT TD9635_LON TD9635_WIND TD9635_PRES TD9635_ROCI NEUMANN_LAT NEUMANN_LON NEUMANN_CLASS NEUMANN_WIND NEUMANN_PRES MLC_LAT MLC_LON MLC_CLASS MLC_WIND MLC_PRES USA_GUST BOM_GUST BOM_GUST_PER REUNION_GUST REUNION_GUST_PER USA_SEAHGT USA_SEARAD_NE USA_SEARAD_SE USA_SEARAD_SW USA_SEARAD_NW STORM_SPEED STORM_DIR
1872122S14066 1872 14 SI MM NOT_NAMED 1872-05-01 06:00:00 NR -13.9000 65.9000 reunion spur-split 1113 1106 _____O________ -1 -13.9000 65.9000 99 9.90000 3 158
1872122S14066 1872 14 SI MM NOT_NAMED 1872-05-01 09:00:00 NR -14.0157 65.9479 spur-split 1106 1106 _____P________ -1 -14.0157 65.9479 99 3 158
1872122S14066 1872 14 SI MM NOT_NAMED 1872-05-01 12:00:00 NR -14.1370 65.9996 spur-split 1108 1101 _____P________ -1 -14.1370 65.9996 99 3 158
1872122S14066 1872 14 SI MM NOT_NAMED 1872-05-01 15:00:00 NR -14.2697 66.0588 spur-split 1103 1096 _____P________ -1 -14.2697 66.0588 99 3 156
1872122S14066 1872 14 SI MM NOT_NAMED 1872-05-01 18:00:00 NR -14.4193 66.1293 spur-split 1096 1089 _____P________ -1 -14.4193 66.1293 99 4 155
1872122S14066 1872 14 SI MM NOT_NAMED 1872-05-01 21:00:00 NR -14.5916 66.2149 spur-split 1091 1085 _____P________ -1 -14.5916 66.2149 99 4 153
1872122S14066 1872 14 SI MM NOT_NAMED 1872-05-02 00:00:00 NR -14.7921 66.3193 spur-split 1087 1084 _____P________ -1 -14.7921 66.3193 99 5 153
1872122S14066 1872 14 SI MM NOT_NAMED 1872-05-02 03:00:00 NR -15.0264 66.4464 spur-split 1084 1081 _____P________ -1 -15.0264 66.4464 99 6 152
1872122S14066 1872 14 SI MM NOT_NAMED 1872-05-02 06:00:00 NR -15.3000 66.6000 reunion spur-split 1084 1079 _____O________ -1 -15.3000 66.6000 99 9.90000 7 151
1872122S14066 1872 14 SI MM NOT_NAMED 1872-05-02 09:00:00 NR -15.6181 66.7848 spur-split 1086 1080 _____P________ -1 -15.6181 66.7848 99 8 150
1872122S14066 1872 14 SI MM NOT_NAMED 1872-05-02 12:00:00 NR -15.9846 67.0089 spur-split 1084 1083 _____P________ -1 -15.9846 67.0089 99 9 149
1872122S14066 1872 14 SI MM NOT_NAMED 1872-05-02 15:00:00 NR -16.4029 67.2810 spur-split 1093 1088 _____P________ -1 -16.4029 67.2810 99 11 147
1872122S14066 1872 14 SI MM NOT_NAMED 1872-05-02 18:00:00 NR -16.8766 67.6104 spur-split 1100 1100 _____P________ -1 -16.8766 67.6104 99 12 145
1872122S14066 1872 14 SI MM NOT_NAMED 1872-05-02 21:00:00 NR -17.4095 68.0066 spur-split 1121 1121 _____P________ -1 -17.4095 68.0066 99 14 144
1872122S14066 1872 14 SI MM NOT_NAMED 1872-05-03 00:00:00 NR -18.0052 68.4797 spur-split 1152 1149 _____P________ -1 -18.0052 68.4797 99 16 142
1872122S14066 1872 14 SI MM NOT_NAMED 1872-05-03 03:00:00 NR -18.6675 69.0404 spur-split 1187 1187 _____P________ -1 -18.6675 69.0404 99 18 140
1872122S14066 1872 14 SI MM NOT_NAMED 1872-05-03 06:00:00 NR -19.4000 69.7000 reunion spur-split 1248 1248 _____O________ -1 -19.4000 69.7000 99 9.90000 22 138
1872122S14066 1872 14 SI MM NOT_NAMED 1872-05-03 09:00:00 NR -20.3280 70.6060 spur-split 1334 1334 _____P________ -1 -20.3280 70.6060 99 27 137
1872122S14066 1872 14 SI MM NOT_NAMED 1872-05-03 12:00:00 NR -21.3466 71.6444 spur-split 1438 1438 _____P________ -1 -21.3466 71.6444 99 29 136
1872122S14066 1872 14 SI MM NOT_NAMED 1872-05-03 15:00:00 NR -22.4129 72.7733 spur-split 1570 1570 _____P________ -1 -22.4129 72.7733 99 30 135
1872122S14066 1872 14 SI MM NOT_NAMED 1872-05-03 18:00:00 NR -23.4840 73.9479 spur-split 1697 1697 _____P________ -1 -23.4840 73.9479 99 30 134
1872122S14066 1872 14 SI MM NOT_NAMED 1872-05-03 21:00:00 NR -24.5177 75.1201 spur-split 1837 1837 _____P________ -1 -24.5177 75.1201 99 29 134
1872122S14066 1872 14 SI MM NOT_NAMED 1872-05-04 00:00:00 NR -25.4736 76.2390 spur-split 1969 1969 _____P________ -1 -25.4736 76.2390 99 26 133
1872122S14066 1872 14 SI MM NOT_NAMED 1872-05-04 03:00:00 NR -26.3131 77.2508 spur-split 2097 2097 _____P________ -1 -26.3131 77.2508 99 23 132
1872122S14066 1872 14 SI MM NOT_NAMED 1872-05-04 06:00:00 NR -27.0000 78.1000 reunion spur-split 2194 2194 _____O________ -1 -27.0000 78.1000 99 9.90000 18 132
1872122S14066 1872 14 SI MM NOT_NAMED 1872-05-04 09:00:00 NR -27.5096 78.7436 spur-split 2266 2266 _____P________ -1 -27.5096 78.7436 99 13 132
1872122S14066 1872 14 SI MM NOT_NAMED 1872-05-04 12:00:00 NR -27.8581 79.1922 spur-split 2326 2326 _____P________ -1 -27.8581 79.1922 99 9 131
1872122S14066 1872 14 SI MM NOT_NAMED 1872-05-04 15:00:00 NR -28.0706 79.4716 spur-split 2361 2361 _____P________ -1 -28.0706 79.4716 99 5 131
1872122S14066 1872 14 SI MM NOT_NAMED 1872-05-04 18:00:00 NR -28.1707 79.6087 spur-split 2373 2373 _____P________ -1 -28.1707 79.6087 99 2 128
1872122S14066 1872 14 SI MM NOT_NAMED 1872-05-04 21:00:00 NR -28.1814 79.6316 spur-split 2373 2370 _____P________ -1 -28.1814 79.6316 99 1 325
1872122S14066 1872 14 SI MM NOT_NAMED 1872-05-05 00:00:00 NR -28.1251 79.5687 spur-split 2370 2357 _____P________ -1 -28.1251 79.5687 99 2 314
1872122S14066 1872 14 SI MM NOT_NAMED 1872-05-05 03:00:00 NR -28.0239 79.4486 spur-split 2348 2336 _____P________ -1 -28.0239 79.4486 99 3 314
1872122S14066 1872 14 SI MM NOT_NAMED 1872-05-05 06:00:00 NR -27.9000 79.3000 reunion spur-split 2336 _____O________ -1 -27.9000 79.3000 99 9.90000 4 313

About IBTrACS Database

This database is a web-friendly format of International Best Track Archive for Climate Stewardship (IBTrACS), a global best track data archive curated by NOAA dating back to 1842.

Updated: 2021-11-26